sensor_id;sensor_type;location;lat;lon;timestamp;pressure;altitude;pressure_sealevel;temperature;humidity
27864;BME280;15980;51.092;13.916;2023-03-19T00:01:52;98502.22;;;8.77;55.28
27864;BME280;15980;51.092;13.916;2023-03-19T00:11:53;98508.94;;;8.80;54.94
27864;BME280;15980;51.092;13.916;2023-03-19T00:21:53;98516.09;;;8.72;55.17
27864;BME280;15980;51.092;13.916;2023-03-19T00:31:53;98522.88;;;8.66;54.71
27864;BME280;15980;51.092;13.916;2023-03-19T00:41:54;98510.97;;;8.62;54.96
27864;BME280;15980;51.092;13.916;2023-03-19T00:51:54;98507.03;;;8.51;55.39
27864;BME280;15980;51.092;13.916;2023-03-19T01:01:54;98510.69;;;8.34;55.77
27864;BME280;15980;51.092;13.916;2023-03-19T01:11:55;98511.97;;;8.28;56.00
27864;BME280;15980;51.092;13.916;2023-03-19T01:21:55;98515.03;;;8.27;56.68
27864;BME280;15980;51.092;13.916;2023-03-19T01:31:55;98510.03;;;8.37;55.87
27864;BME280;15980;51.092;13.916;2023-03-19T01:42:00;98483.50;;;8.29;55.58
27864;BME280;15980;51.092;13.916;2023-03-19T01:52:02;98486.13;;;8.17;55.96
27864;BME280;15980;51.092;13.916;2023-03-19T02:12:24;98499.78;;;7.87;57.52
27864;BME280;15980;51.092;13.916;2023-03-19T02:22:27;98518.09;;;7.87;57.18
27864;BME280;15980;51.092;13.916;2023-03-19T02:32:28;98496.66;;;7.98;57.25
27864;BME280;15980;51.092;13.916;2023-03-19T02:42:29;98494.28;;;7.96;56.69
27864;BME280;15980;51.092;13.916;2023-03-19T02:52:29;98495.88;;;7.97;56.66
27864;BME280;15980;51.092;13.916;2023-03-19T03:02:30;98491.50;;;8.05;55.99
27864;BME280;15980;51.092;13.916;2023-03-19T03:12:30;98497.66;;;7.93;55.62
27864;BME280;15980;51.092;13.916;2023-03-19T03:22:30;98504.16;;;7.71;57.19
27864;BME280;15980;51.092;13.916;2023-03-19T03:32:30;98513.81;;;7.60;57.20
27864;BME280;15980;51.092;13.916;2023-03-19T03:42:31;98511.91;;;7.52;57.29
27864;BME280;15980;51.092;13.916;2023-03-19T03:52:31;98518.19;;;7.44;56.90
27864;BME280;15980;51.092;13.916;2023-03-19T04:02:32;98532.97;;;7.34;57.43
27864;BME280;15980;51.092;13.916;2023-03-19T04:12:32;98532.34;;;7.20;58.00
27864;BME280;15980;51.092;13.916;2023-03-19T04:22:32;98525.44;;;7.14;57.88
27864;BME280;15980;51.092;13.916;2023-03-19T04:32:32;98527.84;;;6.98;58.60
27864;BME280;15980;51.092;13.916;2023-03-19T04:42:33;98528.19;;;6.97;58.74
27864;BME280;15980;51.092;13.916;2023-03-19T04:52:33;98522.25;;;7.03;58.32
27864;BME280;15980;51.092;13.916;2023-03-19T05:02:33;98515.00;;;7.07;58.27
27864;BME280;15980;51.092;13.916;2023-03-19T05:12:34;98517.09;;;7.10;57.84
27864;BME280;15980;51.092;13.916;2023-03-19T05:22:34;98532.19;;;7.08;58.02
27864;BME280;15980;51.092;13.916;2023-03-19T05:32:34;98530.41;;;6.86;59.02
27864;BME280;15980;51.092;13.916;2023-03-19T05:42:35;98528.78;;;6.76;60.52
27864;BME280;15980;51.092;13.916;2023-03-19T05:52:35;98532.97;;;6.82;60.51
27864;BME280;15980;51.092;13.916;2023-03-19T06:02:36;98546.78;;;7.03;59.61
27864;BME280;15980;51.092;13.916;2023-03-19T06:12:36;98546.44;;;7.31;58.46
27864;BME280;15980;51.092;13.916;2023-03-19T06:22:36;98550.91;;;7.70;56.69
27864;BME280;15980;51.092;13.916;2023-03-19T06:32:36;98551.03;;;7.91;55.71
27864;BME280;15980;51.092;13.916;2023-03-19T06:42:37;98547.16;;;7.92;55.00
27864;BME280;15980;51.092;13.916;2023-03-19T06:52:37;98542.19;;;8.23;54.59
27864;BME280;15980;51.092;13.916;2023-03-19T07:02:37;98549.00;;;8.55;53.38
27864;BME280;15980;51.092;13.916;2023-03-19T07:12:38;98561.34;;;8.91;52.46
27864;BME280;15980;51.092;13.916;2023-03-19T07:22:39;98581.22;;;9.41;51.89
27864;BME280;15980;51.092;13.916;2023-03-19T07:32:39;98585.28;;;9.77;51.18
27864;BME280;15980;51.092;13.916;2023-03-19T07:42:39;98587.94;;;10.31;50.55
27864;BME280;15980;51.092;13.916;2023-03-19T07:52:40;98580.97;;;10.82;49.22
27864;BME280;15980;51.092;13.916;2023-03-19T08:02:40;98584.16;;;11.49;48.37
27864;BME280;15980;51.092;13.916;2023-03-19T08:12:40;98582.13;;;12.02;47.48
27864;BME280;15980;51.092;13.916;2023-03-19T08:22:41;98576.03;;;12.40;46.15
27864;BME280;15980;51.092;13.916;2023-03-19T08:32:41;98577.88;;;12.83;46.31
27864;BME280;15980;51.092;13.916;2023-03-19T08:42:42;98591.53;;;12.95;46.53
27864;BME280;15980;51.092;13.916;2023-03-19T08:52:42;98585.06;;;13.03;46.04
27864;BME280;15980;51.092;13.916;2023-03-19T09:02:42;98588.78;;;13.46;45.66
27864;BME280;15980;51.092;13.916;2023-03-19T09:12:43;98583.53;;;13.79;45.07
27864;BME280;15980;51.092;13.916;2023-03-19T09:22:43;98595.91;;;14.08;44.24
27864;BME280;15980;51.092;13.916;2023-03-19T09:32:44;98595.59;;;14.56;44.02
27864;BME280;15980;51.092;13.916;2023-03-19T10:13:29;98582.03;;;14.96;42.94
27864;BME280;15980;51.092;13.916;2023-03-19T10:23:49;98573.53;;;15.65;42.30
27864;BME280;15980;51.092;13.916;2023-03-19T10:44:27;98579.56;;;16.48;41.55
27864;BME280;15980;51.092;13.916;2023-03-19T10:54:28;98566.38;;;16.34;41.55
27864;BME280;15980;51.092;13.916;2023-03-19T11:04:29;98568.50;;;16.52;42.19
27864;BME280;15980;51.092;13.916;2023-03-19T11:24:39;98554.72;;;17.14;40.85
27864;BME280;15980;51.092;13.916;2023-03-19T11:45:06;98545.53;;;17.72;40.19
27864;BME280;15980;51.092;13.916;2023-03-19T11:55:42;98540.81;;;17.86;39.91
27864;BME280;15980;51.092;13.916;2023-03-19T12:05:59;98534.56;;;18.22;39.05
27864;BME280;15980;51.092;13.916;2023-03-19T12:47:35;98523.44;;;18.29;42.07
27864;BME280;15980;51.092;13.916;2023-03-19T13:08:05;98538.03;;;17.83;41.11
27864;BME280;15980;51.092;13.916;2023-03-19T13:28:34;98528.16;;;18.00;42.45
27864;BME280;15980;51.092;13.916;2023-03-19T13:38:47;98533.31;;;17.98;41.91
27864;BME280;15980;51.092;13.916;2023-03-19T13:48:50;98524.59;;;18.13;41.80
27864;BME280;15980;51.092;13.916;2023-03-19T13:59:20;98523.44;;;18.36;41.67
27864;BME280;15980;51.092;13.916;2023-03-19T14:09:32;98525.03;;;18.23;41.81
27864;BME280;15980;51.092;13.916;2023-03-19T14:19:39;98518.25;;;18.16;41.92
27864;BME280;15980;51.092;13.916;2023-03-19T14:29:42;98521.00;;;17.81;44.13
27864;BME280;15980;51.092;13.916;2023-03-19T14:39:44;98520.06;;;17.52;45.11
27864;BME280;15980;51.092;13.916;2023-03-19T14:49:53;98525.00;;;17.07;46.54
27864;BME280;15980;51.092;13.916;2023-03-19T14:59:55;98535.97;;;16.89;47.77
27864;BME280;15980;51.092;13.916;2023-03-19T15:09:58;98531.41;;;16.63;48.08
27864;BME280;15980;51.092;13.916;2023-03-19T15:20:02;98530.44;;;16.42;48.93
27864;BME280;15980;51.092;13.916;2023-03-19T15:30:12;98523.16;;;16.23;51.02
27864;BME280;15980;51.092;13.916;2023-03-19T15:40:19;98529.28;;;16.02;50.30
27864;BME280;15980;51.092;13.916;2023-03-19T15:50:24;98535.69;;;15.73;51.74
27864;BME280;15980;51.092;13.916;2023-03-19T16:00:26;98543.47;;;15.33;54.38
27864;BME280;15980;51.092;13.916;2023-03-19T16:20:28;98561.16;;;14.99;53.78
27864;BME280;15980;51.092;13.916;2023-03-19T16:30:30;98569.16;;;14.55;56.86
27864;BME280;15980;51.092;13.916;2023-03-19T16:40:42;98576.13;;;14.26;59.35
27864;BME280;15980;51.092;13.916;2023-03-19T16:50:43;98587.75;;;14.15;64.09
27864;BME280;15980;51.092;13.916;2023-03-19T17:00:44;98607.78;;;13.90;66.89
27864;BME280;15980;51.092;13.916;2023-03-19T17:10:47;98599.94;;;13.72;69.78
27864;BME280;15980;51.092;13.916;2023-03-19T17:20:54;98615.44;;;13.42;71.76
27864;BME280;15980;51.092;13.916;2023-03-19T17:30:56;98612.38;;;13.28;73.22
27864;BME280;15980;51.092;13.916;2023-03-19T17:40:56;98628.56;;;13.13;74.71
27864;BME280;15980;51.092;13.916;2023-03-19T17:50:59;98639.41;;;12.90;77.09
27864;BME280;15980;51.092;13.916;2023-03-19T18:01:00;98632.59;;;12.69;78.42
27864;BME280;15980;51.092;13.916;2023-03-19T18:11:00;98630.13;;;12.64;78.67
27864;BME280;15980;51.092;13.916;2023-03-19T18:21:01;98637.19;;;12.49;79.87
27864;BME280;15980;51.092;13.916;2023-03-19T18:31:01;98640.66;;;12.30;80.51
27864;BME280;15980;51.092;13.916;2023-03-19T18:41:01;98644.06;;;12.11;80.77
27864;BME280;15980;51.092;13.916;2023-03-19T18:51:02;98640.56;;;11.99;80.75
27864;BME280;15980;51.092;13.916;2023-03-19T19:01:02;98656.88;;;11.91;81.33
27864;BME280;15980;51.092;13.916;2023-03-19T19:11:04;98665.38;;;11.86;82.34
27864;BME280;15980;51.092;13.916;2023-03-19T19:21:05;98663.78;;;11.85;81.92
27864;BME280;15980;51.092;13.916;2023-03-19T19:31:05;98665.53;;;11.78;83.55
27864;BME280;15980;51.092;13.916;2023-03-19T19:41:14;98671.34;;;11.76;85.41
27864;BME280;15980;51.092;13.916;2023-03-19T19:51:20;98677.19;;;11.62;87.58
27864;BME280;15980;51.092;13.916;2023-03-19T20:01:23;98672.44;;;11.47;88.47
27864;BME280;15980;51.092;13.916;2023-03-19T20:11:24;98682.06;;;11.41;89.54
27864;BME280;15980;51.092;13.916;2023-03-19T20:21:25;98689.63;;;11.32;89.40
27864;BME280;15980;51.092;13.916;2023-03-19T20:31:27;98690.78;;;11.31;89.66
27864;BME280;15980;51.092;13.916;2023-03-19T20:41:28;98694.78;;;11.21;90.35
27864;BME280;15980;51.092;13.916;2023-03-19T20:51:28;98701.19;;;11.13;89.37
27864;BME280;15980;51.092;13.916;2023-03-19T21:01:28;98697.06;;;11.07;89.42
27864;BME280;15980;51.092;13.916;2023-03-19T21:11:36;98697.53;;;10.97;89.56
27864;BME280;15980;51.092;13.916;2023-03-19T21:21:37;98695.78;;;10.80;89.07
27864;BME280;15980;51.092;13.916;2023-03-19T21:31:37;98697.72;;;10.55;88.73
27864;BME280;15980;51.092;13.916;2023-03-19T21:41:37;98694.47;;;10.41;88.53
27864;BME280;15980;51.092;13.916;2023-03-19T21:51:38;98695.13;;;10.38;88.66
27864;BME280;15980;51.092;13.916;2023-03-19T22:01:38;98701.50;;;10.30;88.87
27864;BME280;15980;51.092;13.916;2023-03-19T22:11:39;98695.38;;;10.12;89.10
27864;BME280;15980;51.092;13.916;2023-03-19T22:21:39;98693.41;;;9.80;89.50
27864;BME280;15980;51.092;13.916;2023-03-19T22:31:40;98691.03;;;9.49;89.74
27864;BME280;15980;51.092;13.916;2023-03-19T22:41:42;98700.78;;;9.17;89.55
27864;BME280;15980;51.092;13.916;2023-03-19T22:51:43;98698.91;;;9.00;88.76
27864;BME280;15980;51.092;13.916;2023-03-19T23:01:44;98694.66;;;8.81;88.96
27864;BME280;15980;51.092;13.916;2023-03-19T23:11:45;98697.63;;;8.59;89.59
27864;BME280;15980;51.092;13.916;2023-03-19T23:21:46;98689.22;;;8.64;90.98
27864;BME280;15980;51.092;13.916;2023-03-19T23:31:47;98686.97;;;9.04;91.57
27864;BME280;15980;51.092;13.916;2023-03-19T23:41:49;98681.28;;;9.39;90.20
27864;BME280;15980;51.092;13.916;2023-03-19T23:51:50;98683.94;;;9.56;89.54
